Avelino Lopes, Brazil
Current Conditions -  °F | °C
As of 3:00 PM on Friday 31 Oct 2014 (Local Time) from SBPL Reporting Station
Scattered Clouds Scattered Clouds  
Wind Chill: 97°   Ceiling: Unl
Heat Index: 97°   Visibility: 6mi
Dew Point: 55°   Wind: 9mph
Humidity: 25%   Direction: 130°SE
Pressure: 29.88"   Gusts: NA
Location:  10.08°S, 43.94°W
Report Text: SBPL 311800Z 13008KT 9999 SCT040 36/13 Q1012
Loading
Personal Weather Stations






























Interactive Weather Map
Tropical Storm Tracking
New forecast layout! Learn more

10-Day Weather Forecast

Advertisements
Track Severe Weather on mobile